sensor_id;sensor_type;location;lat;lon;timestamp;P1;durP1;ratioP1;P2;durP2;ratioP2
24677;SDS011;12800;53.094;8.778;2024-03-07T00:00:14;12.27;;;7.93;;
24677;SDS011;12800;53.094;8.778;2024-03-07T00:02:42;9.67;;;7.90;;
24677;SDS011;12800;53.094;8.778;2024-03-07T00:05:13;9.43;;;7.13;;
24677;SDS011;12800;53.094;8.778;2024-03-07T00:07:39;9.60;;;7.47;;
24677;SDS011;12800;53.094;8.778;2024-03-07T00:10:05;8.50;;;7.07;;
24677;SDS011;12800;53.094;8.778;2024-03-07T00:12:35;9.87;;;7.20;;
24677;SDS011;12800;53.094;8.778;2024-03-07T00:17:35;12.37;;;7.43;;
24677;SDS011;12800;53.094;8.778;2024-03-07T00:20:01;9.50;;;7.40;;
24677;SDS011;12800;53.094;8.778;2024-03-07T00:22:29;10.10;;;7.50;;
24677;SDS011;12800;53.094;8.778;2024-03-07T00:24:55;9.67;;;7.03;;
24677;SDS011;12800;53.094;8.778;2024-03-07T00:27:21;10.40;;;7.70;;
24677;SDS011;12800;53.094;8.778;2024-03-07T00:29:48;10.23;;;8.17;;
24677;SDS011;12800;53.094;8.778;2024-03-07T00:32:21;11.10;;;7.93;;
24677;SDS011;12800;53.094;8.778;2024-03-07T00:34:47;9.07;;;7.60;;
24677;SDS011;12800;53.094;8.778;2024-03-07T00:37:13;10.50;;;8.10;;
24677;SDS011;12800;53.094;8.778;2024-03-07T00:39:39;12.07;;;7.70;;
24677;SDS011;12800;53.094;8.778;2024-03-07T00:42:05;11.53;;;8.90;;
24677;SDS011;12800;53.094;8.778;2024-03-07T00:44:31;11.07;;;8.50;;
24677;SDS011;12800;53.094;8.778;2024-03-07T00:46:57;12.50;;;9.13;;
24677;SDS011;12800;53.094;8.778;2024-03-07T00:49:23;11.43;;;8.50;;
24677;SDS011;12800;53.094;8.778;2024-03-07T00:51:49;10.73;;;8.40;;
24677;SDS011;12800;53.094;8.778;2024-03-07T00:54:15;10.87;;;8.23;;
24677;SDS011;12800;53.094;8.778;2024-03-07T00:56:41;11.23;;;8.57;;
24677;SDS011;12800;53.094;8.778;2024-03-07T00:59:06;13.83;;;9.37;;
24677;SDS011;12800;53.094;8.778;2024-03-07T01:01:32;13.13;;;9.13;;
24677;SDS011;12800;53.094;8.778;2024-03-07T01:04:01;11.60;;;8.97;;
24677;SDS011;12800;53.094;8.778;2024-03-07T01:06:27;11.43;;;9.47;;
24677;SDS011;12800;53.094;8.778;2024-03-07T01:08:53;13.33;;;9.27;;
24677;SDS011;12800;53.094;8.778;2024-03-07T01:11:19;13.80;;;9.70;;
24677;SDS011;12800;53.094;8.778;2024-03-07T01:13:45;13.93;;;9.77;;
24677;SDS011;12800;53.094;8.778;2024-03-07T01:16:11;12.70;;;9.07;;
24677;SDS011;12800;53.094;8.778;2024-03-07T01:18:37;12.27;;;9.60;;
24677;SDS011;12800;53.094;8.778;2024-03-07T01:21:03;15.27;;;10.40;;
24677;SDS011;12800;53.094;8.778;2024-03-07T01:23:30;13.43;;;9.63;;
24677;SDS011;12800;53.094;8.778;2024-03-07T01:25:56;15.37;;;10.07;;
24677;SDS011;12800;53.094;8.778;2024-03-07T01:28:23;12.13;;;9.53;;
24677;SDS011;12800;53.094;8.778;2024-03-07T01:30:50;14.20;;;9.97;;
24677;SDS011;12800;53.094;8.778;2024-03-07T01:33:16;13.17;;;10.43;;
24677;SDS011;12800;53.094;8.778;2024-03-07T01:35:41;13.80;;;10.47;;
24677;SDS011;12800;53.094;8.778;2024-03-07T01:38:07;14.23;;;10.23;;
24677;SDS011;12800;53.094;8.778;2024-03-07T01:40:35;13.93;;;10.03;;
24677;SDS011;12800;53.094;8.778;2024-03-07T01:43:02;12.90;;;10.13;;
24677;SDS011;12800;53.094;8.778;2024-03-07T01:45:28;13.50;;;10.07;;
24677;SDS011;12800;53.094;8.778;2024-03-07T01:47:53;14.50;;;10.87;;
24677;SDS011;12800;53.094;8.778;2024-03-07T01:50:20;17.13;;;10.70;;
24677;SDS011;12800;53.094;8.778;2024-03-07T01:52:46;13.83;;;10.40;;
24677;SDS011;12800;53.094;8.778;2024-03-07T01:55:15;18.67;;;11.50;;
24677;SDS011;12800;53.094;8.778;2024-03-07T01:57:42;13.77;;;10.87;;
24677;SDS011;12800;53.094;8.778;2024-03-07T02:00:07;15.23;;;10.73;;
24677;SDS011;12800;53.094;8.778;2024-03-07T02:02:34;15.90;;;11.10;;
24677;SDS011;12800;53.094;8.778;2024-03-07T02:05:00;14.77;;;11.23;;
24677;SDS011;12800;53.094;8.778;2024-03-07T02:07:26;19.90;;;12.17;;
24677;SDS011;12800;53.094;8.778;2024-03-07T02:10:04;17.83;;;12.50;;
24677;SDS011;12800;53.094;8.778;2024-03-07T02:12:31;18.70;;;13.00;;
24677;SDS011;12800;53.094;8.778;2024-03-07T02:14:57;18.83;;;13.33;;
24677;SDS011;12800;53.094;8.778;2024-03-07T02:17:24;17.27;;;12.77;;
24677;SDS011;12800;53.094;8.778;2024-03-07T02:19:50;18.80;;;13.40;;
24677;SDS011;12800;53.094;8.778;2024-03-07T02:22:16;21.53;;;14.27;;
24677;SDS011;12800;53.094;8.778;2024-03-07T02:24:42;22.60;;;13.57;;
24677;SDS011;12800;53.094;8.778;2024-03-07T02:27:07;19.97;;;14.83;;
24677;SDS011;12800;53.094;8.778;2024-03-07T02:29:34;18.93;;;14.70;;
24677;SDS011;12800;53.094;8.778;2024-03-07T02:32:01;25.23;;;16.23;;
24677;SDS011;12800;53.094;8.778;2024-03-07T02:34:27;25.97;;;17.67;;
24677;SDS011;12800;53.094;8.778;2024-03-07T02:36:53;27.30;;;16.90;;
24677;SDS011;12800;53.094;8.778;2024-03-07T02:39:19;29.13;;;18.07;;
24677;SDS011;12800;53.094;8.778;2024-03-07T02:41:46;27.23;;;18.33;;
24677;SDS011;12800;53.094;8.778;2024-03-07T02:44:12;31.93;;;19.23;;
24677;SDS011;12800;53.094;8.778;2024-03-07T02:46:39;32.83;;;20.03;;
24677;SDS011;12800;53.094;8.778;2024-03-07T02:49:05;34.97;;;20.80;;
24677;SDS011;12800;53.094;8.778;2024-03-07T02:51:31;32.17;;;19.37;;
24677;SDS011;12800;53.094;8.778;2024-03-07T02:53:56;33.83;;;19.93;;
24677;SDS011;12800;53.094;8.778;2024-03-07T02:56:23;33.10;;;19.73;;
24677;SDS011;12800;53.094;8.778;2024-03-07T02:58:49;35.60;;;21.00;;
24677;SDS011;12800;53.094;8.778;2024-03-07T03:01:14;31.77;;;20.27;;
24677;SDS011;12800;53.094;8.778;2024-03-07T03:03:40;39.73;;;20.10;;
24677;SDS011;12800;53.094;8.778;2024-03-07T03:06:07;31.53;;;19.60;;
24677;SDS011;12800;53.094;8.778;2024-03-07T03:08:34;36.47;;;20.80;;
24677;SDS011;12800;53.094;8.778;2024-03-07T03:11:00;36.00;;;21.30;;
24677;SDS011;12800;53.094;8.778;2024-03-07T03:13:26;33.80;;;20.77;;
24677;SDS011;12800;53.094;8.778;2024-03-07T03:15:52;44.80;;;21.33;;
24677;SDS011;12800;53.094;8.778;2024-03-07T03:18:24;39.30;;;21.67;;
24677;SDS011;12800;53.094;8.778;2024-03-07T03:20:50;35.43;;;21.43;;
24677;SDS011;12800;53.094;8.778;2024-03-07T03:23:17;38.43;;;21.70;;
24677;SDS011;12800;53.094;8.778;2024-03-07T03:25:43;40.40;;;22.30;;
24677;SDS011;12800;53.094;8.778;2024-03-07T03:28:10;41.10;;;22.27;;
24677;SDS011;12800;53.094;8.778;2024-03-07T03:30:36;39.67;;;22.40;;
24677;SDS011;12800;53.094;8.778;2024-03-07T03:33:03;38.43;;;21.03;;
24677;SDS011;12800;53.094;8.778;2024-03-07T03:35:28;41.30;;;23.40;;
24677;SDS011;12800;53.094;8.778;2024-03-07T03:37:54;38.40;;;22.77;;
24677;SDS011;12800;53.094;8.778;2024-03-07T03:40:19;35.03;;;20.63;;
24677;SDS011;12800;53.094;8.778;2024-03-07T03:42:45;43.90;;;21.10;;
24677;SDS011;12800;53.094;8.778;2024-03-07T03:45:11;37.10;;;21.97;;
24677;SDS011;12800;53.094;8.778;2024-03-07T03:47:42;44.50;;;22.93;;
24677;SDS011;12800;53.094;8.778;2024-03-07T03:50:09;39.50;;;22.13;;
24677;SDS011;12800;53.094;8.778;2024-03-07T03:52:37;39.77;;;22.50;;
24677;SDS011;12800;53.094;8.778;2024-03-07T03:55:03;42.97;;;22.93;;
24677;SDS011;12800;53.094;8.778;2024-03-07T03:57:37;41.20;;;22.80;;
24677;SDS011;12800;53.094;8.778;2024-03-07T04:00:05;42.83;;;22.57;;
24677;SDS011;12800;53.094;8.778;2024-03-07T04:02:46;42.20;;;22.63;;
24677;SDS011;12800;53.094;8.778;2024-03-07T04:05:12;49.50;;;23.77;;
24677;SDS011;12800;53.094;8.778;2024-03-07T04:07:39;40.20;;;22.23;;
24677;SDS011;12800;53.094;8.778;2024-03-07T04:10:06;41.10;;;24.30;;
24677;SDS011;12800;53.094;8.778;2024-03-07T04:12:33;45.90;;;23.63;;
24677;SDS011;12800;53.094;8.778;2024-03-07T04:15:00;44.87;;;23.77;;
24677;SDS011;12800;53.094;8.778;2024-03-07T04:17:26;42.13;;;24.37;;
24677;SDS011;12800;53.094;8.778;2024-03-07T04:19:52;46.70;;;24.67;;
24677;SDS011;12800;53.094;8.778;2024-03-07T04:22:17;44.17;;;25.00;;
24677;SDS011;12800;53.094;8.778;2024-03-07T04:24:44;55.67;;;25.53;;
24677;SDS011;12800;53.094;8.778;2024-03-07T04:27:10;54.57;;;27.23;;
24677;SDS011;12800;53.094;8.778;2024-03-07T04:29:36;45.77;;;26.80;;
24677;SDS011;12800;53.094;8.778;2024-03-07T04:32:02;47.47;;;26.63;;
24677;SDS011;12800;53.094;8.778;2024-03-07T04:34:29;48.50;;;25.53;;
24677;SDS011;12800;53.094;8.778;2024-03-07T04:36:59;51.03;;;25.27;;
24677;SDS011;12800;53.094;8.778;2024-03-07T04:39:29;52.27;;;27.40;;
24677;SDS011;12800;53.094;8.778;2024-03-07T04:42:00;55.17;;;26.67;;
24677;SDS011;12800;53.094;8.778;2024-03-07T04:44:27;57.43;;;25.87;;
24677;SDS011;12800;53.094;8.778;2024-03-07T04:46:53;51.90;;;26.20;;
24677;SDS011;12800;53.094;8.778;2024-03-07T04:49:22;51.93;;;27.03;;
24677;SDS011;12800;53.094;8.778;2024-03-07T04:51:49;53.17;;;27.97;;
24677;SDS011;12800;53.094;8.778;2024-03-07T04:54:23;53.97;;;27.00;;
24677;SDS011;12800;53.094;8.778;2024-03-07T04:56:50;56.17;;;28.40;;
24677;SDS011;12800;53.094;8.778;2024-03-07T04:59:17;54.93;;;28.37;;
24677;SDS011;12800;53.094;8.778;2024-03-07T05:01:44;49.83;;;25.67;;
24677;SDS011;12800;53.094;8.778;2024-03-07T05:04:13;46.67;;;25.93;;
24677;SDS011;12800;53.094;8.778;2024-03-07T05:06:40;49.87;;;26.07;;
24677;SDS011;12800;53.094;8.778;2024-03-07T05:09:07;56.60;;;27.50;;
24677;SDS011;12800;53.094;8.778;2024-03-07T05:11:33;52.50;;;27.63;;
24677;SDS011;12800;53.094;8.778;2024-03-07T05:14:00;47.93;;;26.73;;
24677;SDS011;12800;53.094;8.778;2024-03-07T05:16:26;50.70;;;27.50;;
24677;SDS011;12800;53.094;8.778;2024-03-07T05:18:53;51.93;;;26.50;;
24677;SDS011;12800;53.094;8.778;2024-03-07T05:21:19;43.07;;;23.93;;
24677;SDS011;12800;53.094;8.778;2024-03-07T05:24:04;39.23;;;21.87;;
24677;SDS011;12800;53.094;8.778;2024-03-07T05:26:30;41.53;;;21.87;;
24677;SDS011;12800;53.094;8.778;2024-03-07T05:29:00;38.53;;;22.93;;
24677;SDS011;12800;53.094;8.778;2024-03-07T05:31:30;40.67;;;22.87;;
24677;SDS011;12800;53.094;8.778;2024-03-07T05:34:12;39.00;;;23.20;;
24677;SDS011;12800;53.094;8.778;2024-03-07T05:36:38;45.47;;;23.63;;
24677;SDS011;12800;53.094;8.778;2024-03-07T05:39:11;47.40;;;26.37;;
24677;SDS011;12800;53.094;8.778;2024-03-07T05:41:38;54.97;;;30.37;;
24677;SDS011;12800;53.094;8.778;2024-03-07T05:44:04;49.80;;;27.77;;
24677;SDS011;12800;53.094;8.778;2024-03-07T05:46:34;51.70;;;28.60;;
24677;SDS011;12800;53.094;8.778;2024-03-07T05:49:00;56.23;;;29.27;;
24677;SDS011;12800;53.094;8.778;2024-03-07T05:51:26;63.27;;;33.57;;
24677;SDS011;12800;53.094;8.778;2024-03-07T05:53:52;54.77;;;29.67;;
24677;SDS011;12800;53.094;8.778;2024-03-07T05:56:18;53.20;;;28.63;;
24677;SDS011;12800;53.094;8.778;2024-03-07T05:58:44;50.63;;;28.83;;
24677;SDS011;12800;53.094;8.778;2024-03-07T06:01:10;51.77;;;27.50;;
24677;SDS011;12800;53.094;8.778;2024-03-07T06:03:36;48.83;;;27.37;;
24677;SDS011;12800;53.094;8.778;2024-03-07T06:06:02;44.93;;;26.30;;
24677;SDS011;12800;53.094;8.778;2024-03-07T06:08:30;49.33;;;27.10;;
24677;SDS011;12800;53.094;8.778;2024-03-07T06:10:56;45.30;;;24.57;;
24677;SDS011;12800;53.094;8.778;2024-03-07T06:13:23;44.40;;;24.63;;
24677;SDS011;12800;53.094;8.778;2024-03-07T06:15:48;39.43;;;23.30;;
24677;SDS011;12800;53.094;8.778;2024-03-07T06:18:14;40.10;;;22.97;;
24677;SDS011;12800;53.094;8.778;2024-03-07T06:20:40;39.70;;;22.97;;
24677;SDS011;12800;53.094;8.778;2024-03-07T06:23:06;49.27;;;25.50;;
24677;SDS011;12800;53.094;8.778;2024-03-07T06:25:32;43.80;;;24.17;;
24677;SDS011;12800;53.094;8.778;2024-03-07T06:28:01;34.07;;;20.03;;
24677;SDS011;12800;53.094;8.778;2024-03-07T06:30:35;30.40;;;18.37;;
24677;SDS011;12800;53.094;8.778;2024-03-07T06:33:01;36.80;;;20.67;;
24677;SDS011;12800;53.094;8.778;2024-03-07T06:35:27;32.53;;;19.63;;
24677;SDS011;12800;53.094;8.778;2024-03-07T06:37:53;36.90;;;20.40;;
24677;SDS011;12800;53.094;8.778;2024-03-07T06:40:18;33.80;;;20.20;;
24677;SDS011;12800;53.094;8.778;2024-03-07T06:42:47;34.20;;;19.93;;
24677;SDS011;12800;53.094;8.778;2024-03-07T06:45:17;33.53;;;20.20;;
24677;SDS011;12800;53.094;8.778;2024-03-07T06:47:43;35.50;;;21.20;;
24677;SDS011;12800;53.094;8.778;2024-03-07T06:50:09;37.07;;;20.30;;
24677;SDS011;12800;53.094;8.778;2024-03-07T06:52:39;30.93;;;17.63;;
24677;SDS011;12800;53.094;8.778;2024-03-07T06:55:05;30.20;;;18.03;;
24677;SDS011;12800;53.094;8.778;2024-03-07T06:57:32;31.30;;;18.77;;
24677;SDS011;12800;53.094;8.778;2024-03-07T06:59:59;31.27;;;18.73;;
24677;SDS011;12800;53.094;8.778;2024-03-07T07:02:25;35.73;;;19.43;;
24677;SDS011;12800;53.094;8.778;2024-03-07T07:04:52;34.73;;;19.60;;
24677;SDS011;12800;53.094;8.778;2024-03-07T07:07:18;29.30;;;18.83;;
24677;SDS011;12800;53.094;8.778;2024-03-07T07:09:45;30.47;;;18.23;;
24677;SDS011;12800;53.094;8.778;2024-03-07T07:12:11;27.20;;;18.03;;
24677;SDS011;12800;53.094;8.778;2024-03-07T07:14:36;28.93;;;17.47;;
24677;SDS011;12800;53.094;8.778;2024-03-07T07:17:03;30.33;;;18.13;;
24677;SDS011;12800;53.094;8.778;2024-03-07T07:19:28;33.63;;;19.50;;
24677;SDS011;12800;53.094;8.778;2024-03-07T07:21:54;29.10;;;17.53;;
24677;SDS011;12800;53.094;8.778;2024-03-07T07:24:20;27.30;;;17.17;;
24677;SDS011;12800;53.094;8.778;2024-03-07T07:26:49;25.50;;;17.23;;
24677;SDS011;12800;53.094;8.778;2024-03-07T07:29:15;33.07;;;17.87;;
24677;SDS011;12800;53.094;8.778;2024-03-07T07:31:41;35.13;;;18.47;;
24677;SDS011;12800;53.094;8.778;2024-03-07T07:34:07;29.10;;;19.30;;
24677;SDS011;12800;53.094;8.778;2024-03-07T07:36:32;28.80;;;18.87;;
24677;SDS011;12800;53.094;8.778;2024-03-07T07:38:58;34.23;;;19.40;;
24677;SDS011;12800;53.094;8.778;2024-03-07T07:41:24;32.80;;;19.27;;
24677;SDS011;12800;53.094;8.778;2024-03-07T07:43:50;27.83;;;17.03;;
24677;SDS011;12800;53.094;8.778;2024-03-07T07:46:16;33.27;;;17.57;;
24677;SDS011;12800;53.094;8.778;2024-03-07T07:48:43;30.27;;;18.23;;
24677;SDS011;12800;53.094;8.778;2024-03-07T07:51:08;34.60;;;19.17;;
24677;SDS011;12800;53.094;8.778;2024-03-07T07:53:34;34.60;;;18.97;;
24677;SDS011;12800;53.094;8.778;2024-03-07T07:56:00;35.93;;;17.57;;
24677;SDS011;12800;53.094;8.778;2024-03-07T07:58:26;35.30;;;19.47;;
24677;SDS011;12800;53.094;8.778;2024-03-07T08:00:51;33.40;;;19.47;;
24677;SDS011;12800;53.094;8.778;2024-03-07T08:03:17;32.40;;;19.13;;
24677;SDS011;12800;53.094;8.778;2024-03-07T08:05:43;28.73;;;18.80;;
24677;SDS011;12800;53.094;8.778;2024-03-07T08:08:12;36.67;;;19.50;;
24677;SDS011;12800;53.094;8.778;2024-03-07T08:10:41;35.93;;;19.03;;
24677;SDS011;12800;53.094;8.778;2024-03-07T08:13:07;37.07;;;19.10;;
24677;SDS011;12800;53.094;8.778;2024-03-07T08:15:38;31.33;;;17.70;;
24677;SDS011;12800;53.094;8.778;2024-03-07T08:18:04;34.97;;;18.73;;
24677;SDS011;12800;53.094;8.778;2024-03-07T08:20:33;37.60;;;20.17;;
24677;SDS011;12800;53.094;8.778;2024-03-07T08:22:59;35.60;;;17.90;;
24677;SDS011;12800;53.094;8.778;2024-03-07T08:25:26;31.43;;;17.23;;
24677;SDS011;12800;53.094;8.778;2024-03-07T08:27:55;38.17;;;17.87;;
24677;SDS011;12800;53.094;8.778;2024-03-07T08:30:22;35.33;;;17.67;;
24677;SDS011;12800;53.094;8.778;2024-03-07T08:32:53;30.87;;;17.37;;
24677;SDS011;12800;53.094;8.778;2024-03-07T08:35:20;33.37;;;16.57;;
24677;SDS011;12800;53.094;8.778;2024-03-07T08:37:47;29.40;;;16.60;;
24677;SDS011;12800;53.094;8.778;2024-03-07T08:40:20;29.97;;;16.27;;
24677;SDS011;12800;53.094;8.778;2024-03-07T08:42:52;31.10;;;16.00;;
24677;SDS011;12800;53.094;8.778;2024-03-07T08:45:21;31.60;;;15.30;;
24677;SDS011;12800;53.094;8.778;2024-03-07T08:47:48;26.23;;;15.60;;
24677;SDS011;12800;53.094;8.778;2024-03-07T08:50:15;27.33;;;16.03;;
24677;SDS011;12800;53.094;8.778;2024-03-07T08:52:43;27.83;;;13.50;;
24677;SDS011;12800;53.094;8.778;2024-03-07T08:55:13;25.23;;;14.37;;
24677;SDS011;12800;53.094;8.778;2024-03-07T08:57:40;24.67;;;14.60;;
24677;SDS011;12800;53.094;8.778;2024-03-07T09:00:07;28.17;;;14.43;;
24677;SDS011;12800;53.094;8.778;2024-03-07T09:02:34;27.77;;;14.37;;
24677;SDS011;12800;53.094;8.778;2024-03-07T09:05:03;26.67;;;13.60;;
24677;SDS011;12800;53.094;8.778;2024-03-07T09:07:29;24.20;;;14.17;;
24677;SDS011;12800;53.094;8.778;2024-03-07T09:09:56;28.90;;;14.53;;
24677;SDS011;12800;53.094;8.778;2024-03-07T09:12:21;24.20;;;12.97;;
24677;SDS011;12800;53.094;8.778;2024-03-07T09:14:47;23.90;;;13.37;;
24677;SDS011;12800;53.094;8.778;2024-03-07T09:17:13;28.07;;;13.63;;
24677;SDS011;12800;53.094;8.778;2024-03-07T09:19:38;27.63;;;16.53;;
24677;SDS011;12800;53.094;8.778;2024-03-07T09:22:04;24.13;;;13.27;;
24677;SDS011;12800;53.094;8.778;2024-03-07T09:24:33;19.80;;;12.57;;
24677;SDS011;12800;53.094;8.778;2024-03-07T09:26:59;23.10;;;12.83;;
24677;SDS011;12800;53.094;8.778;2024-03-07T09:29:26;22.23;;;12.93;;
24677;SDS011;12800;53.094;8.778;2024-03-07T09:31:52;21.40;;;12.03;;
24677;SDS011;12800;53.094;8.778;2024-03-07T09:34:19;18.60;;;11.47;;
24677;SDS011;12800;53.094;8.778;2024-03-07T09:36:46;21.13;;;11.60;;
24677;SDS011;12800;53.094;8.778;2024-03-07T09:39:13;23.03;;;12.40;;
24677;SDS011;12800;53.094;8.778;2024-03-07T09:41:40;21.50;;;12.00;;
24677;SDS011;12800;53.094;8.778;2024-03-07T09:44:07;22.37;;;13.17;;
24677;SDS011;12800;53.094;8.778;2024-03-07T09:46:36;23.70;;;13.20;;
24677;SDS011;12800;53.094;8.778;2024-03-07T09:49:03;22.07;;;12.60;;
24677;SDS011;12800;53.094;8.778;2024-03-07T09:51:30;20.13;;;13.60;;
24677;SDS011;12800;53.094;8.778;2024-03-07T09:53:58;28.27;;;17.17;;
24677;SDS011;12800;53.094;8.778;2024-03-07T09:56:24;24.97;;;13.33;;
24677;SDS011;12800;53.094;8.778;2024-03-07T09:58:54;21.83;;;14.07;;
24677;SDS011;12800;53.094;8.778;2024-03-07T10:01:23;23.07;;;13.53;;
24677;SDS011;12800;53.094;8.778;2024-03-07T10:03:52;24.70;;;13.63;;
24677;SDS011;12800;53.094;8.778;2024-03-07T10:06:23;20.73;;;12.77;;
24677;SDS011;12800;53.094;8.778;2024-03-07T10:08:49;22.80;;;13.77;;
24677;SDS011;12800;53.094;8.778;2024-03-07T10:11:16;25.77;;;13.47;;
24677;SDS011;12800;53.094;8.778;2024-03-07T10:13:41;20.73;;;13.50;;
24677;SDS011;12800;53.094;8.778;2024-03-07T10:16:07;18.87;;;12.83;;
24677;SDS011;12800;53.094;8.778;2024-03-07T10:18:33;21.17;;;13.63;;
24677;SDS011;12800;53.094;8.778;2024-03-07T10:21:06;23.30;;;14.37;;
24677;SDS011;12800;53.094;8.778;2024-03-07T10:23:32;20.17;;;12.97;;
24677;SDS011;12800;53.094;8.778;2024-03-07T10:26:00;24.10;;;13.17;;
24677;SDS011;12800;53.094;8.778;2024-03-07T10:28:26;20.47;;;13.63;;
24677;SDS011;12800;53.094;8.778;2024-03-07T10:30:56;20.17;;;13.50;;
24677;SDS011;12800;53.094;8.778;2024-03-07T10:33:25;26.00;;;13.77;;
24677;SDS011;12800;53.094;8.778;2024-03-07T10:35:57;22.90;;;13.57;;
24677;SDS011;12800;53.094;8.778;2024-03-07T10:38:23;22.37;;;13.77;;
24677;SDS011;12800;53.094;8.778;2024-03-07T10:40:52;23.47;;;13.40;;
24677;SDS011;12800;53.094;8.778;2024-03-07T10:43:20;23.87;;;13.70;;
24677;SDS011;12800;53.094;8.778;2024-03-07T10:45:47;22.80;;;13.47;;
24677;SDS011;12800;53.094;8.778;2024-03-07T10:48:17;18.03;;;11.63;;
24677;SDS011;12800;53.094;8.778;2024-03-07T10:51:06;18.70;;;12.27;;
24677;SDS011;12800;53.094;8.778;2024-03-07T10:54:08;21.17;;;12.80;;
24677;SDS011;12800;53.094;8.778;2024-03-07T10:59:21;18.23;;;10.47;;
24677;SDS011;12800;53.094;8.778;2024-03-07T11:04:52;18.73;;;11.27;;
24677;SDS011;12800;53.094;8.778;2024-03-07T11:07:20;17.17;;;10.40;;
24677;SDS011;12800;53.094;8.778;2024-03-07T11:09:51;19.07;;;11.17;;
24677;SDS011;12800;53.094;8.778;2024-03-07T11:12:21;19.83;;;11.97;;
24677;SDS011;12800;53.094;8.778;2024-03-07T11:14:49;15.97;;;10.60;;
24677;SDS011;12800;53.094;8.778;2024-03-07T11:17:16;14.77;;;9.30;;
24677;SDS011;12800;53.094;8.778;2024-03-07T11:19:44;16.47;;;9.77;;
24677;SDS011;12800;53.094;8.778;2024-03-07T11:22:10;11.90;;;9.07;;
24677;SDS011;12800;53.094;8.778;2024-03-07T11:24:42;16.23;;;9.77;;
24677;SDS011;12800;53.094;8.778;2024-03-07T11:27:09;15.77;;;9.73;;
24677;SDS011;12800;53.094;8.778;2024-03-07T11:32:28;20.40;;;9.53;;
24677;SDS011;12800;53.094;8.778;2024-03-07T11:34:54;12.50;;;8.80;;
24677;SDS011;12800;53.094;8.778;2024-03-07T11:37:36;12.30;;;9.27;;
24677;SDS011;12800;53.094;8.778;2024-03-07T11:40:09;14.77;;;9.43;;
24677;SDS011;12800;53.094;8.778;2024-03-07T11:42:43;13.10;;;8.90;;
24677;SDS011;12800;53.094;8.778;2024-03-07T11:45:12;16.10;;;11.23;;
24677;SDS011;12800;53.094;8.778;2024-03-07T11:47:49;14.97;;;8.90;;
24677;SDS011;12800;53.094;8.778;2024-03-07T11:50:31;12.40;;;8.47;;
24677;SDS011;12800;53.094;8.778;2024-03-07T11:53:00;11.67;;;8.73;;
24677;SDS011;12800;53.094;8.778;2024-03-07T11:55:26;13.20;;;9.20;;
24677;SDS011;12800;53.094;8.778;2024-03-07T11:57:58;13.50;;;8.53;;
24677;SDS011;12800;53.094;8.778;2024-03-07T12:00:24;13.43;;;8.40;;
24677;SDS011;12800;53.094;8.778;2024-03-07T12:02:53;14.43;;;8.27;;
24677;SDS011;12800;53.094;8.778;2024-03-07T12:05:19;13.70;;;8.20;;
24677;SDS011;12800;53.094;8.778;2024-03-07T12:07:45;13.07;;;9.23;;
24677;SDS011;12800;53.094;8.778;2024-03-07T12:10:10;14.03;;;8.97;;
24677;SDS011;12800;53.094;8.778;2024-03-07T12:12:36;11.67;;;7.70;;
24677;SDS011;12800;53.094;8.778;2024-03-07T12:15:08;13.40;;;8.80;;
24677;SDS011;12800;53.094;8.778;2024-03-07T12:17:44;13.37;;;8.17;;
24677;SDS011;12800;53.094;8.778;2024-03-07T12:20:14;12.40;;;8.47;;
24677;SDS011;12800;53.094;8.778;2024-03-07T12:22:55;13.90;;;8.53;;
24677;SDS011;12800;53.094;8.778;2024-03-07T12:25:33;13.77;;;8.53;;
24677;SDS011;12800;53.094;8.778;2024-03-07T12:28:06;13.73;;;8.53;;
24677;SDS011;12800;53.094;8.778;2024-03-07T12:30:51;11.47;;;8.20;;
24677;SDS011;12800;53.094;8.778;2024-03-07T12:33:19;13.20;;;8.33;;
24677;SDS011;12800;53.094;8.778;2024-03-07T12:35:49;13.33;;;8.70;;
24677;SDS011;12800;53.094;8.778;2024-03-07T12:38:17;16.67;;;10.57;;
24677;SDS011;12800;53.094;8.778;2024-03-07T12:40:44;41.63;;;28.07;;
24677;SDS011;12800;53.094;8.778;2024-03-07T12:43:16;12.43;;;8.90;;
24677;SDS011;12800;53.094;8.778;2024-03-07T12:45:52;12.00;;;8.23;;
24677;SDS011;12800;53.094;8.778;2024-03-07T12:48:19;14.80;;;8.03;;
24677;SDS011;12800;53.094;8.778;2024-03-07T12:50:49;10.70;;;8.07;;
24677;SDS011;12800;53.094;8.778;2024-03-07T12:53:24;13.50;;;8.77;;
24677;SDS011;12800;53.094;8.778;2024-03-07T12:55:54;12.70;;;8.70;;
24677;SDS011;12800;53.094;8.778;2024-03-07T12:58:20;9.87;;;7.43;;
24677;SDS011;12800;53.094;8.778;2024-03-07T13:00:51;12.77;;;7.87;;
24677;SDS011;12800;53.094;8.778;2024-03-07T13:03:17;14.93;;;9.77;;
24677;SDS011;12800;53.094;8.778;2024-03-07T13:05:43;12.40;;;8.27;;
24677;SDS011;12800;53.094;8.778;2024-03-07T13:08:09;13.20;;;8.73;;
24677;SDS011;12800;53.094;8.778;2024-03-07T13:10:39;16.20;;;8.77;;
24677;SDS011;12800;53.094;8.778;2024-03-07T13:13:05;12.70;;;8.87;;
24677;SDS011;12800;53.094;8.778;2024-03-07T13:15:30;13.33;;;8.50;;
24677;SDS011;12800;53.094;8.778;2024-03-07T13:17:56;18.23;;;8.63;;
24677;SDS011;12800;53.094;8.778;2024-03-07T13:20:21;12.63;;;8.60;;
24677;SDS011;12800;53.094;8.778;2024-03-07T13:22:51;12.17;;;8.70;;
24677;SDS011;12800;53.094;8.778;2024-03-07T13:25:17;11.93;;;8.20;;
24677;SDS011;12800;53.094;8.778;2024-03-07T13:27:51;13.43;;;8.63;;
24677;SDS011;12800;53.094;8.778;2024-03-07T13:30:38;12.33;;;8.43;;
24677;SDS011;12800;53.094;8.778;2024-03-07T13:33:05;13.60;;;9.83;;
24677;SDS011;12800;53.094;8.778;2024-03-07T13:35:30;14.57;;;9.33;;
24677;SDS011;12800;53.094;8.778;2024-03-07T13:37:56;15.57;;;9.20;;
24677;SDS011;12800;53.094;8.778;2024-03-07T13:40:25;25.37;;;15.30;;
24677;SDS011;12800;53.094;8.778;2024-03-07T13:42:53;15.73;;;9.93;;
24677;SDS011;12800;53.094;8.778;2024-03-07T13:45:29;18.13;;;9.23;;
24677;SDS011;12800;53.094;8.778;2024-03-07T13:47:57;14.50;;;9.00;;
24677;SDS011;12800;53.094;8.778;2024-03-07T13:50:25;12.90;;;8.90;;
24677;SDS011;12800;53.094;8.778;2024-03-07T13:52:53;13.10;;;9.50;;
24677;SDS011;12800;53.094;8.778;2024-03-07T14:01:08;15.70;;;10.23;;
24677;SDS011;12800;53.094;8.778;2024-03-07T14:14:58;17.97;;;11.90;;
24677;SDS011;12800;53.094;8.778;2024-03-07T14:32:18;21.47;;;12.33;;
24677;SDS011;12800;53.094;8.778;2024-03-07T14:37:54;20.20;;;13.00;;
24677;SDS011;12800;53.094;8.778;2024-03-07T14:40:28;16.87;;;11.40;;
24677;SDS011;12800;53.094;8.778;2024-03-07T14:42:54;18.40;;;10.47;;
24677;SDS011;12800;53.094;8.778;2024-03-07T14:45:25;18.57;;;11.73;;
24677;SDS011;12800;53.094;8.778;2024-03-07T14:47:57;16.60;;;10.43;;
24677;SDS011;12800;53.094;8.778;2024-03-07T14:50:22;19.30;;;11.23;;
24677;SDS011;12800;53.094;8.778;2024-03-07T14:52:51;15.17;;;10.60;;
24677;SDS011;12800;53.094;8.778;2024-03-07T14:55:18;21.13;;;11.93;;
24677;SDS011;12800;53.094;8.778;2024-03-07T14:57:44;20.70;;;11.90;;
24677;SDS011;12800;53.094;8.778;2024-03-07T15:00:11;17.03;;;11.27;;
24677;SDS011;12800;53.094;8.778;2024-03-07T15:02:52;20.03;;;10.93;;
24677;SDS011;12800;53.094;8.778;2024-03-07T15:05:22;15.80;;;10.47;;
24677;SDS011;12800;53.094;8.778;2024-03-07T15:07:49;18.90;;;10.47;;
24677;SDS011;12800;53.094;8.778;2024-03-07T15:10:26;17.60;;;11.33;;
24677;SDS011;12800;53.094;8.778;2024-03-07T15:12:55;18.40;;;10.50;;
24677;SDS011;12800;53.094;8.778;2024-03-07T15:15:21;16.63;;;10.80;;